createdAt,value
2022-07-30T00:01:35.943Z,18.82
2022-07-30T00:04:06.665Z,18.70
2022-07-30T00:06:37.617Z,18.70
2022-07-30T00:09:06.262Z,18.71
2022-07-30T00:11:35.038Z,18.65
2022-07-30T00:14:03.789Z,18.59
2022-07-30T00:16:32.388Z,18.56
2022-07-30T00:19:01.708Z,18.55
2022-07-30T00:21:35.724Z,18.54
2022-07-30T00:24:06.286Z,18.50
2022-07-30T00:26:35.473Z,18.48
2022-07-30T00:29:04.797Z,18.52
2022-07-30T00:31:33.971Z,18.51
2022-07-30T00:34:03.295Z,18.43
2022-07-30T00:36:33.363Z,18.44
2022-07-30T00:39:02.236Z,18.41
2022-07-30T00:41:31.184Z,18.37
2022-07-30T00:44:00.286Z,18.44
2022-07-30T00:46:29.948Z,18.46
2022-07-30T00:48:59.667Z,18.47
2022-07-30T00:51:28.271Z,18.45
2022-07-30T00:53:58.270Z,18.45
2022-07-30T00:56:26.949Z,18.49
2022-07-30T00:58:55.655Z,18.47
2022-07-30T01:01:24.343Z,18.46
2022-07-30T01:03:52.977Z,18.43
2022-07-30T01:06:22.094Z,18.40
2022-07-30T01:08:50.766Z,18.38
2022-07-30T01:11:21.050Z,18.32
2022-07-30T01:13:49.896Z,18.29
2022-07-30T01:16:18.527Z,18.24
2022-07-30T01:19:06.213Z,18.26
2022-07-30T01:21:39.359Z,18.23
2022-07-30T01:24:20.204Z,18.20
2022-07-30T01:26:51.702Z,18.22
2022-07-30T01:29:20.985Z,18.21
2022-07-30T01:31:53.578Z,18.25
2022-07-30T01:34:24.225Z,18.26
2022-07-30T01:36:53.813Z,18.25
2022-07-30T01:39:22.915Z,18.18
2022-07-30T01:41:55.428Z,18.15
2022-07-30T01:44:25.827Z,18.14
2022-07-30T01:46:57.174Z,18.13
2022-07-30T01:49:29.841Z,18.11
2022-07-30T01:52:01.161Z,18.15
2022-07-30T01:54:32.327Z,18.11
2022-07-30T01:57:04.026Z,18.08
2022-07-30T01:59:35.542Z,18.09
2022-07-30T02:02:04.446Z,18.06
2022-07-30T02:04:35.225Z,18.00
2022-07-30T02:07:07.598Z,17.95
2022-07-30T02:09:47.006Z,17.91
2022-07-30T02:12:30.434Z,17.85
2022-07-30T02:15:11.746Z,17.74
2022-07-30T02:17:45.155Z,17.68
2022-07-30T02:20:15.897Z,17.64
2022-07-30T02:22:48.402Z,17.59
2022-07-30T02:25:20.465Z,17.57
2022-07-30T02:27:55.620Z,17.55
2022-07-30T02:30:28.069Z,17.46
2022-07-30T02:33:01.233Z,17.46
2022-07-30T02:35:31.776Z,17.37
2022-07-30T02:38:03.862Z,17.34
2022-07-30T02:40:33.247Z,17.32
2022-07-30T02:43:03.875Z,17.24
2022-07-30T02:45:32.670Z,17.21
2022-07-30T02:48:06.610Z,17.16
2022-07-30T02:50:36.079Z,17.11
2022-07-30T02:53:08.447Z,17.09
2022-07-30T02:55:39.303Z,16.99
2022-07-30T02:58:11.200Z,16.94
2022-07-30T03:00:40.196Z,16.89
2022-07-30T03:03:10.019Z,16.91
2022-07-30T03:05:40.927Z,16.86
2022-07-30T03:08:10.792Z,16.81
2022-07-30T03:10:44.594Z,16.87
2022-07-30T03:13:16.023Z,16.88
2022-07-30T03:15:49.019Z,16.85
2022-07-30T03:18:20.900Z,16.82
2022-07-30T03:20:52.556Z,16.80
2022-07-30T03:23:23.146Z,16.85
2022-07-30T03:25:57.975Z,16.87
2022-07-30T03:28:29.093Z,16.80
2022-07-30T03:30:58.131Z,16.80
2022-07-30T03:33:29.918Z,16.73
2022-07-30T03:36:09.112Z,16.70
2022-07-30T03:38:40.398Z,16.72
2022-07-30T03:41:11.657Z,16.68
2022-07-30T03:43:44.321Z,16.67
2022-07-30T03:46:14.465Z,16.65
2022-07-30T03:48:47.542Z,16.70
2022-07-30T03:51:18.046Z,16.67
2022-07-30T03:53:47.496Z,16.65
2022-07-30T03:56:35.406Z,16.69
2022-07-30T03:59:09.263Z,16.72
2022-07-30T04:01:41.588Z,16.68
2022-07-30T04:04:18.969Z,16.65
2022-07-30T04:06:47.720Z,16.64
2022-07-30T04:09:16.473Z,16.60
2022-07-30T04:11:45.458Z,16.62
2022-07-30T04:14:19.808Z,16.58
2022-07-30T04:16:56.024Z,16.60
2022-07-30T04:19:31.244Z,16.53
2022-07-30T04:22:01.713Z,16.52
2022-07-30T04:24:33.296Z,16.54
2022-07-30T04:27:04.261Z,16.47
2022-07-30T04:29:34.530Z,16.51
2022-07-30T04:32:04.039Z,16.47
2022-07-30T04:34:35.747Z,16.46
2022-07-30T04:37:08.321Z,16.46
2022-07-30T04:39:36.820Z,16.45
2022-07-30T04:42:05.754Z,16.49
2022-07-30T04:44:38.894Z,16.53
2022-07-30T04:47:26.712Z,16.55
2022-07-30T04:50:15.480Z,16.61
2022-07-30T04:52:47.045Z,16.73
2022-07-30T04:55:22.772Z,16.68
2022-07-30T04:57:54.979Z,16.73
2022-07-30T05:00:25.678Z,16.81
2022-07-30T05:02:55.942Z,16.89
2022-07-30T05:05:28.324Z,16.89
2022-07-30T05:07:58.901Z,16.92
2022-07-30T05:10:28.913Z,16.94
2022-07-30T05:12:58.409Z,17.08
2022-07-30T05:15:37.145Z,17.24
2022-07-30T05:18:08.896Z,17.26
2022-07-30T05:20:41.670Z,17.44
2022-07-30T05:23:28.623Z,17.51
2022-07-30T05:26:20.756Z,17.69
2022-07-30T05:28:55.203Z,17.74
2022-07-30T05:31:34.065Z,17.82
2022-07-30T05:34:04.818Z,17.98
2022-07-30T05:36:45.685Z,17.99
2022-07-30T05:39:17.347Z,18.06
2022-07-30T05:41:46.035Z,18.17
2022-07-30T05:44:24.485Z,18.11
2022-07-30T05:46:55.073Z,18.18
2022-07-30T05:49:25.031Z,18.28
2022-07-30T05:51:55.517Z,18.29
2022-07-30T05:54:24.979Z,18.37
2022-07-30T05:57:13.945Z,18.35
2022-07-30T05:59:42.474Z,18.28
2022-07-30T06:02:13.295Z,18.21
2022-07-30T06:05:01.041Z,18.35
2022-07-30T06:07:30.081Z,18.12
2022-07-30T06:10:01.743Z,18.15
2022-07-30T06:12:30.882Z,18.29
2022-07-30T06:14:59.762Z,18.23
2022-07-30T06:17:41.392Z,18.23
2022-07-30T06:20:23.866Z,18.12
2022-07-30T06:23:15.485Z,18.10
2022-07-30T06:26:16.655Z,17.96
2022-07-30T06:28:45.624Z,17.96
2022-07-30T06:31:22.847Z,17.96
2022-07-30T06:33:53.001Z,18.07
2022-07-30T06:36:21.819Z,18.17
2022-07-30T06:38:57.538Z,18.06
2022-07-30T06:41:38.245Z,18.21
2022-07-30T06:44:06.963Z,18.13
2022-07-30T06:46:55.585Z,18.16
2022-07-30T06:49:28.672Z,18.25
2022-07-30T06:51:57.766Z,18.33
2022-07-30T06:54:26.829Z,18.41
2022-07-30T06:57:03.054Z,18.37
2022-07-30T06:59:32.583Z,18.67
2022-07-30T07:02:30.531Z,18.90
2022-07-30T07:05:12.906Z,19.26
2022-07-30T07:07:56.534Z,19.62
2022-07-30T07:10:29.161Z,19.66
2022-07-30T07:13:10.580Z,19.79
2022-07-30T07:15:39.222Z,19.98
2022-07-30T07:18:12.823Z,20.18
2022-07-30T07:20:47.288Z,20.15
2022-07-30T07:23:16.159Z,20.82
2022-07-30T07:25:49.409Z,20.95
2022-07-30T07:28:18.523Z,21.05
2022-07-30T07:30:47.073Z,21.10
2022-07-30T07:33:16.653Z,21.39
2022-07-30T07:35:50.506Z,21.08
2022-07-30T07:38:37.826Z,21.26
2022-07-30T07:41:06.796Z,21.77
2022-07-30T07:43:37.326Z,21.92
2022-07-30T07:46:06.120Z,22.11
2022-07-30T07:48:36.079Z,21.86
2022-07-30T07:51:47.113Z,21.86
2022-07-30T07:54:21.734Z,21.74
2022-07-30T07:56:52.894Z,22.17
2022-07-30T07:59:30.996Z,22.04
2022-07-30T08:02:11.537Z,22.05
2022-07-30T08:05:03.492Z,22.11
2022-07-30T08:07:51.661Z,21.94
2022-07-30T08:10:39.702Z,22.25
2022-07-30T08:13:48.987Z,22.38
2022-07-30T08:16:33.046Z,22.04
2022-07-30T08:19:20.389Z,22.07
2022-07-30T08:22:11.064Z,22.35
2022-07-30T08:24:40.982Z,22.00
2022-07-30T08:27:10.169Z,22.13
2022-07-30T08:29:38.952Z,22.29
2022-07-30T08:32:08.298Z,22.35
2022-07-30T08:34:40.529Z,22.24
2022-07-30T08:37:09.150Z,22.23
2022-07-30T08:39:38.302Z,22.33
2022-07-30T08:42:08.792Z,22.63
2022-07-30T08:44:39.385Z,22.42
2022-07-30T08:47:10.873Z,22.73
2022-07-30T08:50:04.812Z,22.59
2022-07-30T08:52:38.256Z,22.72
2022-07-30T08:55:09.505Z,23.31
2022-07-30T08:57:43.674Z,23.45
2022-07-30T09:00:14.435Z,23.66
2022-07-30T09:02:44.221Z,23.58
2022-07-30T09:05:13.567Z,23.27
2022-07-30T09:07:42.630Z,23.68
2022-07-30T09:10:17.634Z,23.53
2022-07-30T09:12:49.044Z,23.83
2022-07-30T09:15:20.234Z,24.39
2022-07-30T09:17:55.612Z,24.12
2022-07-30T09:20:27.590Z,24.33
2022-07-30T09:22:58.267Z,24.33
2022-07-30T09:26:00.633Z,24.44
2022-07-30T09:29:18.894Z,24.21
2022-07-30T09:32:09.391Z,24.55
2022-07-30T09:34:56.501Z,24.12
2022-07-30T09:37:45.847Z,24.49
2022-07-30T09:40:37.532Z,24.66
2022-07-30T09:43:33.770Z,25.60
2022-07-30T09:46:14.328Z,24.97
2022-07-30T09:48:44.833Z,25.92
2022-07-30T09:51:16.033Z,26.94
2022-07-30T09:53:56.333Z,26.97
2022-07-30T09:56:30.005Z,27.29
2022-07-30T09:59:00.403Z,26.56
2022-07-30T10:01:56.264Z,25.86
2022-07-30T10:04:48.285Z,26.15
2022-07-30T10:07:25.625Z,26.51
2022-07-30T10:10:01.552Z,27.12
2022-07-30T10:12:34.229Z,27.21
2022-07-30T10:15:06.218Z,26.82
2022-07-30T10:17:38.768Z,26.95
2022-07-30T10:20:27.542Z,26.22
2022-07-30T10:23:15.848Z,26.48
2022-07-30T10:26:04.699Z,26.62
2022-07-30T10:28:56.375Z,26.65
2022-07-30T10:31:46.638Z,26.72
2022-07-30T10:34:19.446Z,27.35
2022-07-30T10:36:57.674Z,27.54
2022-07-30T10:39:34.521Z,27.13
2022-07-30T10:42:15.292Z,26.98
2022-07-30T10:45:02.597Z,27.13
2022-07-30T10:47:40.208Z,26.76
2022-07-30T10:50:16.622Z,27.35
2022-07-30T10:52:50.517Z,27.06
2022-07-30T10:55:20.937Z,27.81
2022-07-30T10:58:08.779Z,28.63
2022-07-30T11:01:01.811Z,29.43
2022-07-30T11:03:41.481Z,29.66
2022-07-30T11:06:28.327Z,29.42
2022-07-30T11:08:58.145Z,30.39
2022-07-30T11:12:01.431Z,29.83
2022-07-30T11:15:06.766Z,30.38
2022-07-30T11:18:13.119Z,29.43
2022-07-30T11:20:48.830Z,30.87
2022-07-30T11:23:45.854Z,30.37
2022-07-30T11:26:47.666Z,31.26
2022-07-30T11:29:36.706Z,32.07
2022-07-30T11:32:32.238Z,32.67
2022-07-30T11:35:23.659Z,31.43
2022-07-30T11:38:04.396Z,31.92
2022-07-30T11:40:35.197Z,32.85
2022-07-30T11:43:35.109Z,33.29
2022-07-30T11:46:10.576Z,33.96
2022-07-30T11:48:43.126Z,34.24
2022-07-30T11:51:13.323Z,33.70
2022-07-30T11:53:42.214Z,34.17
2022-07-30T11:56:13.950Z,33.49
2022-07-30T11:58:44.877Z,31.05
2022-07-30T12:01:14.927Z,28.79
2022-07-30T12:03:44.844Z,28.58
2022-07-30T12:06:18.156Z,28.43
2022-07-30T12:08:48.706Z,28.15
2022-07-30T12:11:18.318Z,28.14
2022-07-30T12:13:57.358Z,29.18
2022-07-30T12:16:26.943Z,30.21
2022-07-30T12:18:55.786Z,30.83
2022-07-30T12:21:26.074Z,29.34
2022-07-30T12:23:56.634Z,28.76
2022-07-30T12:26:27.297Z,28.31
2022-07-30T12:28:57.457Z,27.92
2022-07-30T12:31:26.681Z,28.01
2022-07-30T12:33:58.983Z,27.81
2022-07-30T12:36:31.898Z,27.84
2022-07-30T12:39:02.037Z,27.58
2022-07-30T12:41:44.113Z,27.71
2022-07-30T12:44:32.779Z,27.31
2022-07-30T12:47:01.954Z,26.90
2022-07-30T12:49:36.547Z,27.05
2022-07-30T12:52:13.526Z,27.43
2022-07-30T12:55:01.521Z,27.16
2022-07-30T12:57:50.622Z,27.04
2022-07-30T13:00:19.652Z,26.80
2022-07-30T13:02:48.565Z,26.63
2022-07-30T13:05:17.185Z,27.05
2022-07-30T13:08:00.608Z,27.15
2022-07-30T13:10:31.429Z,27.04
2022-07-30T13:13:00.535Z,27.22
2022-07-30T13:15:29.437Z,27.11
2022-07-30T13:17:58.002Z,26.41
2022-07-30T13:20:26.606Z,26.43
2022-07-30T13:22:58.927Z,26.82
2022-07-30T13:25:38.946Z,27.07
2022-07-30T13:28:09.750Z,27.06
2022-07-30T13:30:38.335Z,26.56
2022-07-30T13:33:07.019Z,26.39
2022-07-30T13:35:35.444Z,26.27
2022-07-30T13:38:06.254Z,26.40
2022-07-30T13:40:36.331Z,26.32
2022-07-30T13:43:05.332Z,26.33
2022-07-30T13:45:33.925Z,26.51
2022-07-30T13:48:02.918Z,26.70
2022-07-30T13:50:31.463Z,27.55
2022-07-30T13:53:02.551Z,27.37
2022-07-30T13:55:31.489Z,27.23
2022-07-30T13:58:01.585Z,27.10
2022-07-30T14:00:32.558Z,27.08
2022-07-30T14:03:02.739Z,27.06
2022-07-30T14:05:32.832Z,26.87
2022-07-30T14:08:01.425Z,27.02
2022-07-30T14:10:30.522Z,26.69
2022-07-30T14:12:59.957Z,26.79
2022-07-30T14:15:31.867Z,26.81
2022-07-30T14:18:01.848Z,26.67
2022-07-30T14:20:30.799Z,26.53
2022-07-30T14:22:59.485Z,26.40
2022-07-30T14:25:28.277Z,26.76
2022-07-30T14:27:56.868Z,26.95
2022-07-30T14:30:25.717Z,26.88
2022-07-30T14:33:00.399Z,27.89
2022-07-30T14:35:30.485Z,28.45
2022-07-30T14:37:59.159Z,29.01
2022-07-30T14:40:27.819Z,29.91
2022-07-30T14:42:56.460Z,30.88
2022-07-30T14:45:26.750Z,30.82
2022-07-30T14:47:58.728Z,30.29
2022-07-30T14:50:27.308Z,30.36
2022-07-30T14:52:55.923Z,30.31
2022-07-30T14:55:24.642Z,30.11
2022-07-30T14:57:53.135Z,30.50
2022-07-30T15:00:24.243Z,29.41
2022-07-30T15:02:53.122Z,29.03
2022-07-30T15:05:23.109Z,28.56
2022-07-30T15:07:51.538Z,29.12
2022-07-30T15:10:20.709Z,29.02
2022-07-30T15:12:51.341Z,29.85
2022-07-30T15:15:19.811Z,31.24
2022-07-30T15:17:51.031Z,32.29
2022-07-30T15:20:20.037Z,31.93
2022-07-30T15:22:49.999Z,31.84
2022-07-30T15:25:18.682Z,29.86
2022-07-30T15:27:47.275Z,29.70
2022-07-30T15:30:15.714Z,29.63
2022-07-30T15:32:44.191Z,29.19
2022-07-30T15:35:14.001Z,28.80
2022-07-30T15:37:42.921Z,27.98
2022-07-30T15:40:13.241Z,28.60
2022-07-30T15:42:42.577Z,29.82
2022-07-30T15:45:17.814Z,30.12
2022-07-30T15:47:47.376Z,29.29
2022-07-30T15:50:17.237Z,29.14
2022-07-30T15:52:46.164Z,29.04
2022-07-30T15:55:16.150Z,28.80
2022-07-30T15:57:45.071Z,28.40
2022-07-30T16:00:14.752Z,27.70
2022-07-30T16:02:44.083Z,27.55
2022-07-30T16:05:14.187Z,27.12
2022-07-30T16:07:43.181Z,26.85
2022-07-30T16:10:11.792Z,27.13
2022-07-30T16:12:42.035Z,27.22
2022-07-30T16:15:11.208Z,27.88
2022-07-30T16:17:40.186Z,28.55
2022-07-30T16:20:10.207Z,28.39
2022-07-30T16:22:38.794Z,29.40
2022-07-30T16:25:07.804Z,30.09
2022-07-30T16:27:37.325Z,30.48
2022-07-30T16:30:09.165Z,29.65
2022-07-30T16:32:37.648Z,29.78
2022-07-30T16:35:11.513Z,30.22
2022-07-30T16:37:41.679Z,28.61
2022-07-30T16:40:11.724Z,29.22
2022-07-30T16:42:40.428Z,28.62
2022-07-30T16:45:11.265Z,28.95
2022-07-30T16:47:39.746Z,27.67
2022-07-30T16:50:09.149Z,27.72
2022-07-30T16:52:37.830Z,28.22
2022-07-30T16:55:07.268Z,26.11
2022-07-30T16:57:35.839Z,24.74
2022-07-30T17:00:05.894Z,24.35
2022-07-30T17:02:35.978Z,23.94
2022-07-30T17:05:04.877Z,23.64
2022-07-30T17:07:33.382Z,23.17
2022-07-30T17:10:01.982Z,22.86
2022-07-30T17:12:30.445Z,23.06
2022-07-30T17:14:58.967Z,22.84
2022-07-30T17:17:28.119Z,22.84
2022-07-30T17:19:59.994Z,22.73
2022-07-30T17:22:28.913Z,22.60
2022-07-30T17:24:57.570Z,22.48
2022-07-30T17:27:28.310Z,22.43
2022-07-30T17:29:57.056Z,22.31
2022-07-30T17:32:26.034Z,22.30
2022-07-30T17:34:55.100Z,22.09
2022-07-30T17:37:25.393Z,22.19
2022-07-30T17:40:19.188Z,22.03
2022-07-30T17:42:45.449Z,22.08
2022-07-30T17:45:14.855Z,22.01
2022-07-30T17:47:43.544Z,22.08
2022-07-30T17:50:12.646Z,22.07
2022-07-30T17:52:42.738Z,21.69
2022-07-30T17:55:13.303Z,21.39
2022-07-30T17:57:41.944Z,21.17
2022-07-30T18:00:12.113Z,21.20
2022-07-30T18:02:40.736Z,21.22
2022-07-30T18:05:11.054Z,21.20
2022-07-30T18:07:39.539Z,21.22
2022-07-30T18:10:10.883Z,21.21
2022-07-30T18:12:39.618Z,21.28
2022-07-30T18:15:17.595Z,21.55
2022-07-30T18:17:46.471Z,21.69
2022-07-30T18:20:15.988Z,21.70
2022-07-30T18:22:44.551Z,21.52
2022-07-30T18:25:18.063Z,21.61
2022-07-30T18:27:48.496Z,21.77
2022-07-30T18:30:17.104Z,21.74
2022-07-30T18:32:46.082Z,21.71
2022-07-30T18:35:15.473Z,21.71
2022-07-30T18:37:44.777Z,21.44
2022-07-30T18:40:23.677Z,21.24
2022-07-30T18:42:53.450Z,21.15
2022-07-30T18:45:22.762Z,21.01
2022-07-30T18:47:51.436Z,20.91
2022-07-30T18:50:20.117Z,20.86
2022-07-30T18:52:48.902Z,20.78
2022-07-30T18:55:20.880Z,20.66
2022-07-30T18:57:52.130Z,20.61
2022-07-30T19:00:34.099Z,20.62
2022-07-30T19:03:04.537Z,20.61
2022-07-30T19:05:33.323Z,20.55
2022-07-30T19:08:01.806Z,20.57
2022-07-30T19:10:31.975Z,20.43
2022-07-30T19:13:00.577Z,20.50
2022-07-30T19:15:29.834Z,20.51
2022-07-30T19:17:59.377Z,20.44
2022-07-30T19:20:28.053Z,20.46
2022-07-30T19:23:03.779Z,20.34
2022-07-30T19:25:34.773Z,20.18
2022-07-30T19:28:05.358Z,20.17
2022-07-30T19:30:34.718Z,20.03
2022-07-30T19:33:05.190Z,20.06
2022-07-30T19:35:33.828Z,20.07
2022-07-30T19:38:02.793Z,19.92
2022-07-30T19:40:31.556Z,19.96
2022-07-30T19:43:06.560Z,20.04
2022-07-30T19:45:47.780Z,19.94
2022-07-30T19:48:28.458Z,19.79
2022-07-30T19:50:59.110Z,19.72
2022-07-30T19:53:28.084Z,19.76
2022-07-30T19:56:01.859Z,19.84
2022-07-30T19:58:33.727Z,19.72
2022-07-30T20:01:03.418Z,19.61
2022-07-30T20:03:38.835Z,19.63
2022-07-30T20:06:08.099Z,19.60
2022-07-30T20:08:38.355Z,19.59
2022-07-30T20:11:10.305Z,19.54
2022-07-30T20:13:46.156Z,19.48
2022-07-30T20:16:19.037Z,19.43
2022-07-30T20:18:49.759Z,19.38
2022-07-30T20:21:20.698Z,19.34
2022-07-30T20:24:14.699Z,19.28
2022-07-30T20:26:44.226Z,19.26
2022-07-30T20:29:18.833Z,19.05
2022-07-30T20:31:49.745Z,18.97
2022-07-30T20:34:20.705Z,18.98
2022-07-30T20:36:53.828Z,19.01
2022-07-30T20:39:23.603Z,18.96
2022-07-30T20:42:07.713Z,18.89
2022-07-30T20:44:40.173Z,18.89
2022-07-30T20:47:13.506Z,18.86
2022-07-30T20:49:42.697Z,18.85
2022-07-30T20:52:11.355Z,18.79
2022-07-30T20:54:43.816Z,18.82
2022-07-30T20:57:15.475Z,18.78
2022-07-30T20:59:46.274Z,18.67
2022-07-30T21:02:15.224Z,18.63
2022-07-30T21:04:46.529Z,18.53
2022-07-30T21:07:20.603Z,18.52
2022-07-30T21:09:52.661Z,18.56
2022-07-30T21:12:32.887Z,18.56
2022-07-30T21:15:23.366Z,18.53
2022-07-30T21:17:53.043Z,18.54
2022-07-30T21:20:27.818Z,18.49
2022-07-30T21:22:59.132Z,18.53
2022-07-30T21:25:33.077Z,18.51
2022-07-30T21:28:03.275Z,18.53
2022-07-30T21:30:35.765Z,18.47
2022-07-30T21:33:04.537Z,18.45
2022-07-30T21:35:33.134Z,18.46
2022-07-30T21:38:01.932Z,18.64
2022-07-30T21:40:31.749Z,18.60
2022-07-30T21:43:00.613Z,18.59
2022-07-30T21:45:38.709Z,18.65
2022-07-30T21:48:10.764Z,18.72
2022-07-30T21:50:40.797Z,18.63
2022-07-30T21:53:09.612Z,18.66
2022-07-30T21:55:52.704Z,18.70
2022-07-30T21:58:26.207Z,18.67
2022-07-30T22:01:17.382Z,18.60
2022-07-30T22:04:03.195Z,18.58
2022-07-30T22:06:37.768Z,18.54
2022-07-30T22:09:19.061Z,18.57
2022-07-30T22:12:00.836Z,18.65
2022-07-30T22:14:31.510Z,18.57
2022-07-30T22:17:00.505Z,18.45
2022-07-30T22:19:30.599Z,18.39
2022-07-30T22:22:26.261Z,18.39
2022-07-30T22:24:49.674Z,18.46
2022-07-30T22:27:18.195Z,18.54
2022-07-30T22:29:50.927Z,18.43
2022-07-30T22:32:24.309Z,18.51
2022-07-30T22:34:54.682Z,18.50
2022-07-30T22:37:26.967Z,18.45
2022-07-30T22:40:03.397Z,18.45
2022-07-30T22:42:36.491Z,18.43
2022-07-30T22:45:16.029Z,18.45
2022-07-30T22:48:10.789Z,18.41
2022-07-30T22:50:41.650Z,18.48
2022-07-30T22:53:23.525Z,18.42
2022-07-30T22:55:59.724Z,18.43
2022-07-30T22:58:29.666Z,18.46
2022-07-30T23:01:01.438Z,18.46
2022-07-30T23:03:30.193Z,18.43
2022-07-30T23:06:00.509Z,18.40
2022-07-30T23:08:30.907Z,18.45
2022-07-30T23:11:00.933Z,18.47
2022-07-30T23:13:29.924Z,18.42
2022-07-30T23:15:58.579Z,18.41
2022-07-30T23:18:27.219Z,18.53
2022-07-30T23:21:00.290Z,18.46
2022-07-30T23:23:34.222Z,18.47
2022-07-30T23:26:03.286Z,18.43
2022-07-30T23:28:31.934Z,18.33
2022-07-30T23:31:00.552Z,18.27
2022-07-30T23:33:29.035Z,18.44
2022-07-30T23:35:58.072Z,18.33
2022-07-30T23:38:26.922Z,18.39
2022-07-30T23:41:01.170Z,18.43
2022-07-30T23:43:29.977Z,18.42
2022-07-30T23:45:58.513Z,18.45
2022-07-30T23:48:28.246Z,18.34
2022-07-30T23:50:56.919Z,18.36
2022-07-30T23:53:25.791Z,18.34
2022-07-30T23:55:55.821Z,18.32
2022-07-30T23:58:24.608Z,18.26
